Time;durP1;ratioP1;P1;durP2;ratioP2;P2;SDS_P1;SDS_P2;PMS_P1;PMS_P2;Temp;Humidity;BMP_temperature;BMP_pressure;BME280_temperature;BME280_humidity;BME280_pressure;Samples;Min_cycle;Max_cycle;Signal;HPM_P1;HPM_P2
2022/08/20 00:02:10;;;;;;;9.85;5.87;;;;;;;16.61;100.00;99962.99;1781805;80;21816;-68
2022/08/20 00:04:37;;;;;;;9.68;5.80;;;;;;;16.55;100.00;99969.09;1803158;79;21056;-68
2022/08/20 00:07:04;;;;;;;9.98;5.87;;;;;;;16.51;100.00;99969.39;1805543;79;21076;-68
2022/08/20 00:09:30;;;;;;;9.08;5.58;;;;;;;16.50;100.00;99971.68;1805255;79;21530;-70
2022/08/20 00:11:57;;;;;;;8.75;6.00;;;;;;;16.46;100.00;99968.84;1805065;79;22063;-68
2022/08/20 00:14:24;;;;;;;8.25;5.58;;;;;;;16.42;100.00;99965.50;1805289;79;21557;-67
2022/08/20 00:16:50;;;;;;;7.20;5.30;;;;;;;16.41;100.00;99969.13;1805534;79;21042;-68
2022/08/20 00:19:17;;;;;;;9.38;5.90;;;;;;;16.38;100.00;99969.34;1805465;79;21284;-68
2022/08/20 00:21:44;;;;;;;8.18;5.60;;;;;;;16.32;100.00;99972.38;1805626;79;21214;-67
2022/08/20 00:24:10;;;;;;;7.72;5.62;;;;;;;16.29;100.00;99971.25;1805234;79;21034;-67
2022/08/20 00:26:37;;;;;;;10.13;5.75;;;;;;;16.26;100.00;99976.73;1805275;79;21042;-68
2022/08/20 00:29:03;;;;;;;8.75;6.15;;;;;;;16.22;100.00;99971.23;1805190;79;21046;-68
2022/08/20 00:31:30;;;;;;;9.83;6.08;;;;;;;16.17;100.00;99970.67;1805146;79;21041;-67
2022/08/20 00:33:57;;;;;;;8.70;6.12;;;;;;;16.12;100.00;99972.28;1804999;79;21231;-68
2022/08/20 00:36:23;;;;;;;12.00;6.22;;;;;;;16.09;100.00;99981.30;1804926;79;21057;-68
2022/08/20 00:38:50;;;;;;;8.70;6.05;;;;;;;16.04;100.00;99979.90;1805185;79;21132;-69
2022/08/20 00:41:21;;;;;;;10.28;6.78;;;;;;;16.01;100.00;99984.93;1804698;79;21021;-69
2022/08/20 00:44:01;;;;;;;11.30;7.10;;;;;;;15.93;100.00;99987.19;1805656;79;21033;-69
2022/08/20 00:46:30;;;;;;;9.93;6.80;;;;;;;15.90;100.00;99992.22;1805375;79;21855;-69
2022/08/20 00:48:57;;;;;;;8.05;6.85;;;;;;;15.86;100.00;99991.17;1805192;79;22008;-68
2022/08/20 00:51:44;;;;;;;12.53;7.45;;;;;;;15.84;100.00;99989.08;1805033;79;21518;-69
2022/08/20 00:54:31;;;;;;;10.85;6.92;;;;;;;15.77;100.00;99993.06;1764645;81;21538;-68
2022/08/20 00:57:11;;;;;;;14.07;7.35;;;;;;;15.72;100.00;99992.02;1733714;82;21062;-67
2022/08/20 00:59:40;;;;;;;13.95;6.58;;;;;;;15.68;100.00;99993.11;1804120;79;21844;-69
2022/08/20 01:02:10;;;;;;;8.88;6.50;;;;;;;15.61;100.00;99996.60;1783374;79;21071;-68
2022/08/20 01:04:37;;;;;;;;;;;;;;;15.60;100.00;99996.23;1806597;78;21066;-68
2022/08/20 01:07:05;;;;;;;9.53;6.50;;;;;;;15.58;100.00;99991.48;1810914;79;20138;-67
2022/08/20 01:09:33;;;;;;;8.70;6.97;;;;;;;15.56;100.00;99993.37;1812482;78;21023;-68
2022/08/20 01:12:00;;;;;;;13.72;7.53;;;;;;;15.54;100.00;99992.61;1785754;79;21093;-69
2022/08/20 01:17:00;;;;;;;9.80;7.60;;;;;;;15.48;100.00;99994.29;1812859;78;21090;-67
2022/08/20 01:19:49;;;;;;;12.07;7.55;;;;;;;15.44;100.00;99993.64;1777773;79;21058;-69
2022/08/20 01:25:11;;;;;;;12.23;7.83;;;;;;;15.49;100.00;99982.75;1813346;79;21224;-68
2022/08/20 01:27:38;;;;;;;11.40;7.80;;;;;;;15.51;100.00;99989.67;1812736;79;21074;-68
2022/08/20 01:30:06;;;;;;;14.03;8.23;;;;;;;15.55;100.00;99986.34;1812910;79;21031;-68
2022/08/20 01:32:33;;;;;;;10.88;8.10;;;;;;;15.56;100.00;99989.39;1813359;78;21030;-67
2022/08/20 01:34:59;;;;;;;10.80;7.70;;;;;;;15.52;100.00;99983.88;1812990;79;21121;-68
2022/08/20 01:37:26;;;;;;;10.38;7.70;;;;;;;15.57;100.00;99983.13;1812890;79;21477;-68
2022/08/20 01:39:52;;;;;;;10.05;7.72;;;;;;;15.55;100.00;99977.05;1812823;79;21035;-70
2022/08/20 01:42:27;;;;;;;9.93;7.40;;;;;;;15.60;100.00;99967.03;1812681;78;21038;-69
2022/08/20 01:44:54;;;;;;;12.20;7.80;;;;;;;15.65;100.00;99972.91;1812871;79;21133;-67
2022/08/20 01:47:27;;;;;;;12.58;7.75;;;;;;;15.63;100.00;99957.55;1812601;79;21097;-68
2022/08/20 01:50:00;;;;;;;8.60;7.17;;;;;;;15.71;100.00;99951.34;1812859;78;21221;-69
2022/08/20 01:52:50;;;;;;;12.07;7.22;;;;;;;15.76;100.00;99951.52;1812886;78;21602;-68
2022/08/20 01:55:17;;;;;;;11.65;8.33;;;;;;;15.78;100.00;99946.97;1792759;80;21006;-68
2022/08/20 01:57:47;;;;;;;12.03;7.58;;;;;;;15.79;100.00;99946.88;1793560;80;21057;-68
2022/08/20 02:00:16;;;;;;;11.05;8.10;;;;;;;15.78;100.00;99945.64;1796746;78;21616;-68
2022/08/20 02:02:43;;;;;;;9.98;7.62;;;;;;;15.78;100.00;99949.63;1826107;78;22226;-68
2022/08/20 02:05:10;;;;;;;11.35;9.00;;;;;;;15.78;100.00;99956.26;1796590;78;20994;-69
2022/08/20 02:07:37;;;;;;;11.53;8.70;;;;;;;15.79;100.00;99954.00;1784422;78;21076;-68
2022/08/20 02:10:08;;;;;;;10.78;7.47;;;;;;;15.76;100.00;99954.17;1781753;80;21627;-68
2022/08/20 02:12:38;;;;;;;10.80;7.17;;;;;;;15.77;100.00;99957.22;1781708;80;21017;-68
2022/08/20 02:15:09;;;;;;;10.10;8.15;;;;;;;15.76;100.00;99962.13;1782143;80;21737;-68
2022/08/20 02:17:36;;;;;;;12.13;8.15;;;;;;;15.79;100.00;99960.16;1781609;80;21587;-68
2022/08/20 02:20:14;;;;;;;10.35;7.87;;;;;;;15.77;100.00;99962.53;1781923;80;21085;-68
2022/08/20 02:22:48;;;;;;;10.25;8.28;;;;;;;15.78;100.00;99966.43;1781722;80;21041;-69
2022/08/20 02:25:15;;;;;;;10.00;8.23;;;;;;;15.78;100.00;99964.22;1782194;80;21037;-69
2022/08/20 02:27:45;;;;;;;10.38;8.03;;;;;;;15.75;100.00;99972.39;1781916;80;21159;-67
2022/08/20 02:30:22;;;;;;;14.25;8.43;;;;;;;15.76;100.00;99977.61;1782235;80;21076;-67
2022/08/20 02:32:49;;;;;;;10.80;8.53;;;;;;;15.77;100.00;99977.13;1781794;80;20981;-68
2022/08/20 02:35:18;;;;;;;12.23;7.90;;;;;;;15.82;100.00;99976.38;1782265;80;21103;-68
2022/08/20 02:37:45;;;;;;;10.58;7.30;;;;;;;15.85;100.00;99973.52;1782354;80;21490;-67
2022/08/20 02:40:16;;;;;;;11.57;6.87;;;;;;;15.89;100.00;99971.06;1782540;80;21529;-68
2022/08/20 02:42:44;;;;;;;9.53;7.40;;;;;;;15.92;100.00;99977.53;1782181;80;21084;-69
2022/08/20 02:45:13;;;;;;;10.13;7.22;;;;;;;15.93;100.00;99973.91;1782263;80;21068;-68
2022/08/20 02:47:46;;;;;;;10.88;7.10;;;;;;;15.94;100.00;99964.98;1782181;80;21084;-68
2022/08/20 02:50:13;;;;;;;7.92;7.12;;;;;;;15.95;100.00;99974.67;1781295;80;21441;-68
2022/08/20 02:52:41;;;;;;;8.03;7.20;;;;;;;15.98;100.00;99967.84;1781907;80;21107;-68
2022/08/20 02:55:08;;;;;;;9.15;7.33;;;;;;;16.00;100.00;99961.95;1751070;81;21071;-68
2022/08/20 02:57:35;;;;;;;11.18;7.22;;;;;;;15.99;100.00;99959.39;1750955;81;21088;-67
2022/08/20 03:00:06;;;;;;;9.28;7.05;;;;;;;16.02;100.00;99970.69;1751125;80;21248;-67
2022/08/20 03:02:32;;;;;;;9.15;7.17;;;;;;;16.03;100.00;99964.41;1782012;80;21041;-68
2022/08/20 03:04:59;;;;;;;13.40;7.22;;;;;;;16.07;100.00;99968.59;1782141;80;21125;-68
2022/08/20 03:07:26;;;;;;;11.43;6.95;;;;;;;16.11;100.00;99970.59;1803476;77;21033;-67
2022/08/20 03:09:52;;;;;;;10.63;6.53;;;;;;;16.12;100.00;99968.30;1811818;79;21546;-68
2022/08/20 03:12:19;;;;;;;11.48;7.62;;;;;;;16.17;100.00;99979.48;1811724;79;21536;-68
2022/08/20 03:14:46;;;;;;;9.13;7.20;;;;;;;16.21;100.00;99982.82;1812034;79;21541;-68
2022/08/20 03:17:13;;;;;;;10.80;7.33;;;;;;;16.25;100.00;99989.66;1812040;79;21232;-67
2022/08/20 03:19:39;;;;;;;12.78;7.47;;;;;;;16.29;100.00;99985.86;1812049;79;21065;-68
2022/08/20 03:22:06;;;;;;;7.47;6.70;;;;;;;16.32;100.00;99992.30;1812061;78;21088;-69
2022/08/20 03:24:32;;;;;;;7.37;6.60;;;;;;;16.34;100.00;99986.42;1811831;79;21037;-68
2022/08/20 03:26:59;;;;;;;11.78;7.70;;;;;;;16.40;100.00;99991.33;1812030;79;21018;-69
2022/08/20 03:29:25;;;;;;;8.35;7.35;;;;;;;16.43;100.00;99988.98;1812190;79;21249;-67
2022/08/20 03:31:52;;;;;;;9.35;7.00;;;;;;;16.46;100.00;99990.09;1811711;79;21018;-70
2022/08/20 03:34:18;;;;;;;6.90;6.20;;;;;;;16.48;100.00;99983.73;1812527;78;21092;-68
2022/08/20 03:36:45;;;;;;;7.03;6.33;;;;;;;16.51;100.00;99982.67;1811908;78;21076;-69
2022/08/20 03:39:12;;;;;;;7.20;6.50;;;;;;;16.54;100.00;99978.03;1811915;79;21502;-68
2022/08/20 03:41:39;;;;;;;10.68;7.03;;;;;;;16.59;100.00;99977.73;1811789;78;21642;-69
2022/08/20 03:44:05;;;;;;;9.70;7.05;;;;;;;16.67;100.00;99978.56;1812143;78;21093;-68
2022/08/20 03:46:33;;;;;;;8.88;7.40;;;;;;;16.70;100.00;99974.36;1811815;79;21052;-68
2022/08/20 03:48:59;;;;;;;10.95;7.47;;;;;;;16.73;100.00;99978.17;1811943;79;21073;-67
2022/08/20 03:51:30;;;;;;;15.35;7.03;;;;;;;16.75;100.00;99973.61;1812198;78;21081;-69
2022/08/20 03:53:57;;;;;;;10.48;7.60;;;;;;;16.77;100.00;99977.00;1795359;79;21248;-68
2022/08/20 03:56:24;;;;;;;15.45;9.78;;;;;;;16.82;100.00;99973.62;1779983;80;21033;-68
2022/08/20 03:58:50;;;;;;;15.18;10.78;;;;;;;16.87;100.00;99968.00;1779928;80;21061;-68
2022/08/20 04:01:17;;;;;;;11.68;9.65;;;;;;;16.89;100.00;99961.62;1780129;80;20995;-67
2022/08/20 04:03:44;;;;;;;16.73;10.00;;;;;;;16.91;100.00;99962.83;1742677;82;21017;-68
2022/08/20 04:06:10;;;;;;;13.62;9.68;;;;;;;16.91;100.00;99957.05;1742623;82;21138;-67
2022/08/20 04:08:39;;;;;;;13.32;9.58;;;;;;;16.94;100.00;99958.17;1687774;83;21566;-69
2022/08/20 04:11:07;;;;;;;14.47;9.40;;;;;;;17.02;100.00;99962.13;1759280;81;21028;-68
2022/08/20 04:13:34;;;;;;;11.50;8.45;;;;;;;17.09;100.00;99967.41;1745928;82;21041;-67
2022/08/20 04:16:02;;;;;;;13.53;7.78;;;;;;;17.14;100.00;99966.65;1745961;82;21061;-68
2022/08/20 04:18:29;;;;;;;12.28;8.35;;;;;;;17.19;100.00;99968.52;1759310;81;21445;-69
2022/08/20 04:20:56;;;;;;;9.70;6.78;;;;;;;17.24;100.00;99969.05;1746028;82;21033;-68
2022/08/20 04:23:23;;;;;;;9.23;7.28;;;;;;;17.29;100.00;99974.06;1759190;81;21111;-69
2022/08/20 04:25:49;;;;;;;11.70;8.13;;;;;;;17.30;100.00;99968.65;1745818;82;21081;-69
2022/08/20 04:28:26;;;;;;;11.22;7.80;;;;;;;17.35;100.00;99961.20;1759559;81;21048;-67
2022/08/20 04:30:51;;;;;;;11.33;7.70;;;;;;;17.43;100.00;99958.49;1745598;82;21136;-69
2022/08/20 04:33:20;;;;;;;10.50;7.83;;;;;;;17.47;100.00;99959.51;1758979;81;21582;-68
2022/08/20 04:35:47;;;;;;;13.75;8.33;;;;;;;17.54;100.00;99965.27;1745546;81;21150;-69
2022/08/20 04:38:17;;;;;;;12.30;7.83;;;;;;;17.61;100.00;99963.40;1759045;81;21055;-69
2022/08/20 04:40:53;;;;;;;10.28;8.43;;;;;;;17.69;100.00;99962.02;1745893;82;21096;-69
2022/08/20 04:43:22;;;;;;;11.05;7.15;;;;;;;17.75;100.00;99960.27;1758997;81;21145;-68
2022/08/20 04:45:50;;;;;;;12.20;7.58;;;;;;;17.79;100.00;99962.61;1759307;81;21063;-68
2022/08/20 04:48:19;;;;;;;8.83;7.20;;;;;;;17.84;100.00;99969.47;1729056;81;21071;-68
2022/08/20 04:50:46;;;;;;;8.95;6.37;;;;;;;17.86;100.00;99970.22;1746110;81;21033;-69
2022/08/20 04:53:16;;;;;;;9.48;7.05;;;;;;;17.86;100.00;99965.73;1765721;80;21148;-70
2022/08/20 04:55:44;;;;;;;12.07;6.72;;;;;;;17.87;100.00;99962.09;1776688;80;21094;-69
2022/08/20 04:58:16;;;;;;;11.90;7.30;;;;;;;17.92;100.00;99953.78;1776111;80;21084;-69
2022/08/20 05:00:48;;;;;;;13.00;7.42;;;;;;;17.99;100.00;99947.93;1776255;80;21003;-69
2022/08/20 05:03:16;;;;;;;10.95;7.28;;;;;;;18.13;100.00;99948.28;1776841;80;21057;-68
2022/08/20 05:05:43;;;;;;;7.65;6.08;;;;;;;18.28;100.00;99948.14;1776557;80;21692;-69
2022/08/20 05:08:11;;;;;;;10.78;6.25;;;;;;;18.43;100.00;99951.04;1774282;80;21145;-70
2022/08/20 05:10:39;;;;;;;9.38;5.80;;;;;;;18.58;100.00;99951.23;1773204;80;22017;-69
2022/08/20 05:13:07;;;;;;;9.28;6.67;;;;;;;18.73;100.00;99947.94;1741140;82;21066;-69
2022/08/20 05:15:34;;;;;;;9.15;6.10;;;;;;;18.92;100.00;99946.11;1773140;80;21037;-69
2022/08/20 05:19:11;;;;;;;8.88;5.97;;;;;;;19.19;100.00;99943.68;1796683;79;22672;-69
2022/08/20 05:21:38;;;;;;;9.00;4.90;;;;;;;19.32;100.00;99935.57;1756213;81;21193;-69
2022/08/20 05:24:05;;;;;;;8.55;4.78;;;;;;;19.45;100.00;99937.18;1756170;81;21120;-69
2022/08/20 05:26:33;;;;;;;5.97;4.85;;;;;;;19.54;100.00;99932.95;1756269;81;21049;-69
2022/08/20 05:28:59;;;;;;;10.25;4.17;;;;;;;19.69;100.00;99937.14;1756272;81;21116;-68
2022/08/20 05:31:27;;;;;;;4.95;4.28;;;;;;;19.85;100.00;99920.77;1756747;81;21069;-68
2022/08/20 05:33:55;;;;;;;7.00;4.37;;;;;;;20.05;100.00;99919.16;1756378;81;21451;-70
2022/08/20 05:36:21;;;;;;;7.60;4.00;;;;;;;20.24;100.00;99919.86;1756284;81;21556;-68
2022/08/20 05:38:48;;;;;;;4.25;3.80;;;;;;;20.46;100.00;99916.30;1756552;81;21024;-69
2022/08/20 05:41:14;;;;;;;4.45;3.47;;;;;;;20.63;100.00;99914.94;1756465;81;21104;-69
2022/08/20 05:43:41;;;;;;;3.87;3.20;;;;;;;20.81;100.00;99921.09;1756272;81;21108;-69
2022/08/20 05:46:08;;;;;;;3.77;2.95;;;;;;;21.01;100.00;99922.96;1756515;81;21048;-68
2022/08/20 05:48:35;;;;;;;4.35;3.22;;;;;;;21.20;100.00;99922.25;1756276;81;21261;-69
2022/08/20 05:51:01;;;;;;;5.50;3.58;;;;;;;21.31;100.00;99920.01;1754516;81;21092;-69
2022/08/20 05:53:28;;;;;;;5.60;2.92;;;;;;;21.48;100.00;99923.45;1747939;82;21080;-68
2022/08/20 05:55:55;;;;;;;4.47;2.70;;;;;;;21.74;100.00;99923.02;1747964;82;21073;-69
2022/08/20 05:58:25;;;;;;;3.15;2.85;;;;;;;21.87;100.00;99922.31;1748118;82;21026;-69
2022/08/20 06:00:52;;;;;;;2.47;2.27;;;;;;;21.92;100.00;99922.75;1747802;82;21252;-67
2022/08/20 06:06:05;;;;;;;5.08;2.58;;;;;;;22.09;100.00;99921.78;1747696;82;21549;-70
2022/08/20 06:08:33;;;;;;;3.62;2.62;;;;;;;22.10;100.00;99919.44;1747582;82;21062;-69
2022/08/20 06:11:01;;;;;;;3.85;2.20;;;;;;;22.12;100.00;99922.34;1748013;82;21560;-69
2022/08/20 06:13:28;;;;;;;2.95;2.40;;;;;;;22.05;100.00;99920.34;1747559;82;21541;-68
2022/08/20 06:15:56;;;;;;;3.62;2.45;;;;;;;21.96;100.00;99916.14;1747900;82;20994;-69
2022/08/20 06:18:23;;;;;;;4.78;3.02;;;;;;;21.90;100.00;99914.48;1740257;81;21545;-69
2022/08/20 06:20:50;;;;;;;5.53;3.00;;;;;;;21.85;100.00;99918.07;1734719;82;21124;-69
2022/08/20 06:23:17;;;;;;;5.78;3.27;;;;;;;21.75;100.00;99924.73;1734696;82;21054;-70
2022/08/20 06:25:44;;;;;;;6.05;2.75;;;;;;;21.65;100.00;99926.50;1735080;82;21114;-68
2022/08/20 06:28:13;;;;;;;4.75;3.10;;;;;;;21.56;100.00;99930.84;1734460;82;21034;-69
2022/08/20 06:30:40;;;;;;;4.20;3.42;;;;;;;21.52;100.00;99927.56;1734443;82;21125;-69
2022/08/20 06:33:07;;;;;;;4.45;4.03;;;;;;;21.51;100.00;99941.95;1734080;82;21582;-70
2022/08/20 06:35:36;;;;;;;6.55;4.10;;;;;;;21.56;100.00;99937.05;1734204;82;22177;-70
2022/08/20 06:38:04;;;;;;;5.15;3.85;;;;;;;21.76;100.00;99943.38;1734168;82;21237;-70
2022/08/20 06:40:32;;;;;;;4.75;3.20;;;;;;;21.91;100.00;99934.97;1734503;82;21546;-70
2022/08/20 06:42:59;;;;;;;3.20;2.85;;;;;;;22.00;100.00;99935.00;1734215;82;20995;-68
2022/08/20 06:45:30;;;;;;;4.78;3.40;;;;;;;22.09;100.00;99937.88;1734605;82;21034;-70
2022/08/20 06:48:00;;;;;;;3.95;3.08;;;;;;;22.18;100.00;99942.42;1734215;82;21035;-70
2022/08/20 06:50:31;;;;;;;3.62;2.80;;;;;;;22.26;100.00;99945.78;1734344;82;21103;-70
2022/08/20 06:52:58;;;;;;;4.00;2.77;;;;;;;22.35;100.00;99953.86;1734040;82;21014;-71
2022/08/20 06:55:25;;;;;;;3.50;2.55;;;;;;;22.43;100.00;99948.30;1734390;82;21038;-69
2022/08/20 06:58:02;;;;;;;5.83;2.90;;;;;;;22.61;99.64;99945.30;1734244;82;21015;-70
2022/08/20 07:00:30;;;;;;;2.87;2.47;;;;;;;22.75;97.59;99943.58;1734148;82;21078;-69
2022/08/20 07:02:59;;;;;;;2.92;2.60;;;;;;;22.86;97.77;99943.08;1734503;82;21145;-69
2022/08/20 07:05:30;;;;;;;2.60;2.30;;;;;;;23.11;96.09;99941.20;1734166;82;21070;-69
2022/08/20 07:07:56;;;;;;;5.90;2.70;;;;;;;23.32;93.69;99942.88;1734456;82;21082;-70
2022/08/20 07:10:24;;;;;;;5.60;3.33;;;;;;;23.60;93.01;99943.34;1734333;82;21522;-70
2022/08/20 07:12:51;;;;;;;5.35;3.33;;;;;;;23.87;89.57;99937.18;1734096;82;21059;-69
2022/08/20 07:15:20;;;;;;;5.78;3.02;;;;;;;24.04;87.81;99930.20;1734309;82;21585;-69
2022/08/20 07:17:52;;;;;;;3.27;2.50;;;;;;;24.44;87.59;99934.37;1736625;82;21041;-70
2022/08/20 07:20:18;;;;;;;6.40;2.10;;;;;;;24.76;87.54;99931.71;1748029;82;21033;-69
2022/08/20 07:22:45;;;;;;;4.95;2.20;;;;;;;25.53;84.86;99921.25;1748375;82;21061;-70
2022/08/20 07:25:13;;;;;;;2.37;2.00;;;;;;;26.34;80.86;99922.69;1748226;82;21236;-70
2022/08/20 07:27:43;;;;;;;3.45;1.90;;;;;;;27.14;77.75;99922.18;1748420;82;21733;-70
2022/08/20 07:32:59;;;;;;;2.47;1.83;;;;;;;27.66;67.63;99927.23;1748640;82;21554;-70
2022/08/20 07:35:26;;;;;;;1.90;1.60;;;;;;;27.52;66.30;99936.89;1747977;82;21070;-71
2022/08/20 07:37:53;;;;;;;2.08;1.60;;;;;;;27.32;67.25;99932.34;1748096;82;21118;-70
2022/08/20 07:40:29;;;;;;;2.50;1.47;;;;;;;27.61;66.90;99929.62;1748066;82;21126;-70
2022/08/20 07:42:57;;;;;;;1.75;1.52;;;;;;;28.06;64.22;99929.50;1747826;82;21021;-69
2022/08/20 07:45:24;;;;;;;2.45;1.70;;;;;;;28.40;62.65;99915.64;1747958;82;21648;-69
2022/08/20 07:47:54;;;;;;;2.45;1.60;;;;;;;28.86;62.01;99913.00;1748082;82;21075;-71
2022/08/20 07:50:31;;;;;;;5.70;1.47;;;;;;;29.43;59.84;99914.94;1748123;82;21283;-70
2022/08/20 07:53:00;;;;;;;2.55;1.60;;;;;;;29.94;57.13;99914.25;1748280;82;21077;-71
2022/08/20 07:55:26;;;;;;;4.47;1.50;;;;;;;29.70;55.13;99908.05;1748084;82;21077;-69
2022/08/20 07:57:53;;;;;;;3.40;1.40;;;;;;;29.34;55.28;99914.17;1748446;82;21041;-70
2022/08/20 08:00:21;;;;;;;8.48;1.47;;;;;;;29.25;50.18;99903.07;1747976;82;21179;-70
2022/08/20 08:02:48;;;;;;;9.03;2.00;;;;;;;29.28;48.76;99896.75;1748247;81;21041;-70
2022/08/20 08:05:16;;;;;;;4.75;1.60;;;;;;;29.36;49.29;99903.14;1748179;82;21070;-69
2022/08/20 08:07:44;;;;;;;6.15;1.52;;;;;;;30.04;48.90;99893.08;1748382;82;21119;-70
2022/08/20 08:10:14;;;;;;;2.65;1.35;;;;;;;30.04;48.90;99893.08;1748282;82;21538;-70
2022/08/20 08:12:46;;;;;;;4.55;1.50;;;;;;;30.52;47.87;99888.88;1721312;82;21605;-70
2022/08/20 08:15:18;;;;;;;7.10;2.15;;;;;;;30.82;45.96;99885.20;1748320;82;21053;-70
2022/08/20 08:17:45;;;;;;;4.60;1.70;;;;;;;30.43;46.03;99887.31;1747787;81;21754;-71
2022/08/20 08:20:13;;;;;;;5.83;1.98;;;;;;;30.43;46.03;99887.31;1747969;82;21096;-69
2022/08/20 08:22:41;;;;;;;1.52;1.40;;;;;;;30.14;46.82;99884.14;1748186;82;21033;-70
2022/08/20 08:25:10;;;;;;;6.00;1.60;;;;;;;29.82;47.12;99884.87;1748536;82;21032;-70
2022/08/20 08:27:39;;;;;;;4.93;1.67;;;;;;;29.54;47.61;99879.22;1748368;82;21061;-70
2022/08/20 08:30:06;;;;;;;7.95;1.42;;;;;;;29.32;47.61;99883.67;1748487;82;21801;-70
2022/08/20 08:33:26;;;;;;;5.75;1.70;;;;;;;29.37;47.75;99885.83;1747952;82;21588;-71
2022/08/20 08:35:07;;;;;;;2.50;1.60;;;;;;;29.31;48.09;99884.72;1743983;82;21062;-70
2022/08/20 08:37:36;;;;;;;2.00;1.50;;;;;;;29.17;49.18;99886.86;1748038;82;21132;-70
2022/08/20 08:40:04;;;;;;;3.35;1.70;;;;;;;29.02;49.05;99875.44;1748383;82;21029;-70
2022/08/20 08:42:45;;;;;;;4.17;1.60;;;;;;;28.97;49.34;99876.51;1747917;82;21878;-71
2022/08/20 08:45:15;;;;;;;2.20;1.40;;;;;;;28.81;49.59;99883.42;1748469;82;21077;-70
2022/08/20 08:47:42;;;;;;;11.78;1.90;;;;;;;28.54;50.17;99880.20;1748026;82;21078;-69
2022/08/20 08:50:20;;;;;;;6.67;1.82;;;;;;;28.41;50.35;99883.48;1748376;82;21105;-70
2022/08/20 08:52:45;;;;;;;6.28;1.98;;;;;;;28.34;50.36;99878.95;1747913;81;21517;-70
2022/08/20 08:55:15;;;;;;;6.67;1.60;;;;;;;28.22;50.38;99876.63;1748076;82;21869;-69
2022/08/20 08:57:41;;;;;;;4.65;1.40;;;;;;;28.02;50.17;99882.14;1748114;82;21050;-68
2022/08/20 09:00:13;;;;;;;1.70;1.60;;;;;;;27.74;51.19;99878.50;1748352;82;21045;-69
2022/08/20 09:02:41;;;;;;;3.92;1.75;;;;;;;27.60;51.59;99880.58;1747886;82;21092;-70
2022/08/20 09:05:14;;;;;;;4.55;1.55;;;;;;;27.54;52.18;99877.23;1721119;82;21022;-69
2022/08/20 09:07:40;;;;;;;5.22;2.02;;;;;;;27.29;52.31;99877.27;1748062;82;21217;-70
2022/08/20 09:10:07;;;;;;;3.37;2.17;;;;;;;27.08;53.62;99882.30;1748383;82;21030;-69
2022/08/20 09:12:35;;;;;;;4.30;2.12;;;;;;;26.77;54.02;99888.39;1748145;82;21447;-70
2022/08/20 09:15:02;;;;;;;5.97;2.22;;;;;;;26.40;55.38;99892.34;1748299;82;21041;-69
2022/08/20 09:17:28;;;;;;;3.83;2.30;;;;;;;26.07;56.63;99891.41;1747922;82;21065;-71
2022/08/20 09:19:55;;;;;;;4.87;2.52;;;;;;;25.75;58.17;99896.45;1737296;81;21864;-69
2022/08/20 09:22:24;;;;;;;3.12;2.47;;;;;;;25.63;59.79;99891.47;1733967;82;21058;-69
2022/08/20 09:24:52;;;;;;;3.15;2.17;;;;;;;25.56;60.45;99892.64;1734108;82;20995;-69
2022/08/20 09:27:19;;;;;;;5.30;2.33;;;;;;;25.62;60.92;99893.33;1734189;82;21042;-70
2022/08/20 09:29:45;;;;;;;3.90;2.55;;;;;;;25.78;60.56;99893.93;1734309;82;21055;-69
2022/08/20 09:32:21;;;;;;;3.70;2.20;;;;;;;25.78;59.38;99897.13;1733968;82;21787;-69
2022/08/20 09:34:54;;;;;;;2.50;2.10;;;;;;;25.68;59.20;99903.49;1734010;82;20983;-68
2022/08/20 09:37:19;;;;;;;2.58;2.30;;;;;;;25.63;59.34;99900.44;1734112;82;21054;-69
2022/08/20 09:39:47;;;;;;;3.08;2.52;;;;;;;25.61;59.65;99901.09;1734059;82;20991;-69
2022/08/20 09:42:19;;;;;;;2.80;2.58;;;;;;;25.52;59.44;99903.39;1734381;82;20991;-69
2022/08/20 09:44:47;;;;;;;3.58;2.40;;;;;;;25.41;60.26;99901.80;1734193;82;20978;-70
2022/08/20 09:47:14;;;;;;;6.05;2.20;;;;;;;25.33;60.68;99910.69;1734278;82;21069;-69
2022/08/20 09:49:41;;;;;;;3.02;2.05;;;;;;;25.23;60.02;99904.53;1734250;82;21046;-69
2022/08/20 09:52:09;;;;;;;3.83;2.47;;;;;;;25.22;59.28;99911.44;1734529;82;21090;-70
2022/08/20 09:54:36;;;;;;;3.72;2.60;;;;;;;25.26;59.54;99904.23;1734083;82;21057;-69
2022/08/20 09:57:05;;;;;;;3.33;2.50;;;;;;;25.29;59.64;99906.61;1734480;82;21099;-69
2022/08/20 09:59:32;;;;;;;5.65;2.25;;;;;;;25.27;59.61;99905.91;1733777;82;21058;-69
2022/08/20 10:01:59;;;;;;;5.33;2.30;;;;;;;25.30;60.18;99902.89;1713205;82;21522;-69
2022/08/20 10:04:25;;;;;;;2.70;2.40;;;;;;;25.35;58.99;99905.62;1734009;82;21565;-69
2022/08/20 10:06:55;;;;;;;3.15;2.12;;;;;;;25.29;58.95;99899.87;1734145;82;21626;-69
2022/08/20 10:09:22;;;;;;;2.80;1.70;;;;;;;25.27;58.86;99905.91;1734069;82;21638;-70
2022/08/20 10:11:48;;;;;;;5.25;2.52;;;;;;;25.26;58.43;99908.75;1734340;82;21081;-67
2022/08/20 10:14:15;;;;;;;3.42;2.40;;;;;;;25.27;59.48;99903.22;1734353;82;21086;-70
2022/08/20 10:16:41;;;;;;;5.55;2.98;;;;;;;25.38;60.20;99894.04;1734710;82;21054;-70
2022/08/20 10:19:08;;;;;;;3.20;2.40;;;;;;;25.57;60.58;99899.72;1735678;82;21065;-70
2022/08/20 10:21:34;;;;;;;8.38;2.47;;;;;;;25.73;59.22;99901.16;1741978;81;21321;-70
2022/08/20 10:24:01;;;;;;;3.27;2.00;;;;;;;25.76;58.58;99902.67;1742305;82;21518;-70
2022/08/20 10:26:28;;;;;;;5.40;2.15;;;;;;;25.67;58.66;99902.29;1742521;82;21053;-69
2022/08/20 10:28:55;;;;;;;4.58;1.90;;;;;;;25.55;59.38;99905.77;1742437;82;21065;-70
2022/08/20 10:31:21;;;;;;;3.15;1.87;;;;;;;25.46;59.12;99899.47;1742479;82;21022;-70
2022/08/20 10:33:48;;;;;;;3.77;1.87;;;;;;;25.40;60.57;99904.16;1742505;82;21112;-69
2022/08/20 10:36:16;;;;;;;3.35;1.95;;;;;;;25.36;60.79;99908.68;1742275;82;21057;-69
2022/08/20 10:38:43;;;;;;;3.30;2.47;;;;;;;25.27;61.24;99905.91;1742279;82;21600;-69
2022/08/20 10:41:09;;;;;;;2.72;2.10;;;;;;;25.27;61.33;99905.91;1742581;82;21401;-69
2022/08/20 10:43:36;;;;;;;3.05;2.02;;;;;;;25.26;61.42;99904.23;1742797;82;21089;-69
2022/08/20 10:46:03;;;;;;;2.35;1.82;;;;;;;25.30;61.83;99900.20;1742517;82;22146;-69
2022/08/20 10:48:30;;;;;;;3.55;2.20;;;;;;;25.39;61.46;99897.58;1742345;82;21038;-69
2022/08/20 10:50:56;;;;;;;5.40;2.70;;;;;;;25.60;61.61;99893.98;1742668;82;21037;-69
2022/08/20 10:53:23;;;;;;;4.80;2.25;;;;;;;25.87;61.28;99890.80;1733960;82;21041;-70
2022/08/20 10:55:49;;;;;;;5.53;2.35;;;;;;;26.09;59.85;99889.36;1712821;83;21117;-69
2022/08/20 10:58:16;;;;;;;6.00;1.90;;;;;;;26.22;60.08;99895.16;1712815;83;21816;-68
2022/08/20 11:00:44;;;;;;;2.55;1.95;;;;;;;26.42;58.90;99894.37;1713040;83;21596;-69
2022/08/20 11:03:11;;;;;;;3.75;1.85;;;;;;;26.62;58.16;99891.40;1712906;83;21081;-70
2022/08/20 11:05:38;;;;;;;1.52;1.40;;;;;;;26.70;58.06;99888.20;1712812;83;21065;-69
2022/08/20 11:08:05;;;;;;;6.83;1.60;;;;;;;26.71;55.17;99889.05;1712919;83;21096;-71
2022/08/20 11:10:33;;;;;;;2.02;1.57;;;;;;;26.67;55.11;99888.55;1712890;83;21194;-69
2022/08/20 11:13:04;;;;;;;3.60;1.80;;;;;;;26.69;54.82;99875.73;1712938;83;21054;-69
2022/08/20 11:15:33;;;;;;;1.80;1.45;;;;;;;26.76;55.49;99878.61;1712974;83;21582;-71
2022/08/20 11:18:01;;;;;;;3.17;1.62;;;;;;;26.79;55.71;99874.21;1713207;83;21644;-70
2022/08/20 11:20:27;;;;;;;3.33;2.12;;;;;;;26.86;55.67;99871.17;1714781;83;21506;-69
2022/08/20 11:22:54;;;;;;;4.83;2.98;;;;;;;26.89;55.66;99876.23;1718667;83;21581;-71
2022/08/20 11:25:21;;;;;;;3.98;2.47;;;;;;;26.80;55.60;99871.83;1718441;83;21053;-69
2022/08/20 11:27:49;;;;;;;7.33;3.45;;;;;;;26.64;55.93;99874.05;1718630;83;21038;-68
2022/08/20 11:30:27;;;;;;;2.55;2.30;;;;;;;26.40;56.72;99872.09;1718483;83;21045;-69
2022/08/20 11:32:54;;;;;;;6.22;2.50;;;;;;;26.10;57.91;99870.32;1718216;83;21022;-68
2022/08/20 11:35:22;;;;;;;4.37;3.05;;;;;;;25.91;59.33;99865.20;1718355;83;21321;-69
2022/08/20 11:37:52;;;;;;;5.87;2.98;;;;;;;25.76;60.50;99867.62;1718569;83;21052;-69
2022/08/20 11:40:19;;;;;;;9.30;4.10;;;;;;;25.66;61.29;99869.09;1718480;83;21483;-70
2022/08/20 11:42:49;;;;;;;6.62;3.52;;;;;;;25.61;62.02;99867.39;1718541;83;21092;-70
2022/08/20 11:45:16;;;;;;;4.00;3.30;;;;;;;25.55;62.10;99870.72;1718359;83;20998;-70